createdAt,value
2022-10-24T00:00:43.702Z,95571.34
2022-10-24T00:03:46.192Z,95558.56
2022-10-24T00:06:48.060Z,95560.47
2022-10-24T00:09:49.965Z,95566.63
2022-10-24T00:12:53.466Z,95568.97
2022-10-24T00:15:56.726Z,95592.16
2022-10-24T00:18:58.657Z,95605.38
2022-10-24T00:22:00.571Z,95615.06
2022-10-24T00:25:02.503Z,95632.13
2022-10-24T00:28:04.703Z,95646.47
2022-10-24T00:31:12.475Z,95642.97
2022-10-24T00:34:14.383Z,95654.56
2022-10-24T00:37:16.364Z,95668.13
2022-10-24T00:40:20.580Z,95670.06
2022-10-24T00:43:24.986Z,95668.50
2022-10-24T00:46:28.262Z,95675.47
2022-10-24T00:49:35.015Z,95670.06
2022-10-24T00:52:40.259Z,95675.06
2022-10-24T00:55:42.801Z,95673.94
2022-10-24T00:58:46.164Z,95672.00
2022-10-24T01:01:49.474Z,95673.56
2022-10-24T01:04:51.546Z,95676.25
2022-10-24T01:08:03.330Z,95679.34
2022-10-24T01:11:19.240Z,95676.25
2022-10-24T01:14:27.975Z,95673.13
2022-10-24T01:17:39.416Z,95669.66
2022-10-24T01:21:17.733Z,95673.91
2022-10-24T01:24:36.527Z,95678.19
2022-10-24T01:28:03.730Z,95680.91
2022-10-24T01:31:12.275Z,95688.63
2022-10-24T01:34:22.244Z,95689.00
2022-10-24T01:37:30.372Z,95699.84
2022-10-24T01:40:36.888Z,95706.81
2022-10-24T01:43:42.931Z,95709.56
2022-10-24T01:46:52.003Z,95710.31
2022-10-24T01:49:56.976Z,95713.00
2022-10-24T01:52:59.478Z,95717.66
2022-10-24T01:56:01.829Z,95717.69
2022-10-24T01:59:08.093Z,95720.78
2022-10-24T02:02:17.788Z,95728.53
2022-10-24T02:05:24.180Z,95733.94
2022-10-24T02:08:31.103Z,95737.00
2022-10-24T02:11:35.285Z,95734.28
2022-10-24T02:14:43.164Z,95736.22
2022-10-24T02:17:46.680Z,95734.69
2022-10-24T02:20:55.201Z,95732.72
2022-10-24T02:24:02.712Z,95736.22
2022-10-24T02:27:09.912Z,95745.13
2022-10-24T02:30:16.270Z,95738.91
2022-10-24T02:33:20.748Z,95736.16
2022-10-24T02:36:27.417Z,95722.22
2022-10-24T02:39:31.528Z,95714.09
2022-10-24T02:42:35.613Z,95712.16
2022-10-24T02:45:38.775Z,95696.31
2022-10-24T02:48:47.803Z,95697.91
2022-10-24T02:51:50.832Z,95697.91
2022-10-24T02:54:52.728Z,95707.56
2022-10-24T02:57:54.618Z,95699.84
2022-10-24T03:00:56.592Z,95694.41
2022-10-24T03:03:59.888Z,95684.38
2022-10-24T03:07:01.777Z,95678.97
2022-10-24T03:10:04.345Z,95680.09
2022-10-24T03:13:06.241Z,95670.06
2022-10-24T03:16:11.596Z,95672.38
2022-10-24T03:19:17.326Z,95665.00
2022-10-24T03:22:19.237Z,95660.38
2022-10-24T03:25:21.115Z,95666.56
2022-10-24T03:28:23.004Z,95677.38
2022-10-24T03:31:25.178Z,95678.94
2022-10-24T03:34:28.445Z,95669.25
2022-10-24T03:37:30.354Z,95653.41
2022-10-24T03:40:35.339Z,95653.78
2022-10-24T03:43:37.235Z,95644.50
2022-10-24T03:46:39.225Z,95636.41
2022-10-24T03:49:42.855Z,95640.66
2022-10-24T03:52:45.343Z,95647.63
2022-10-24T03:55:47.362Z,95625.53
2022-10-24T03:58:49.874Z,95630.19
2022-10-24T04:01:51.790Z,95628.25
2022-10-24T04:04:55.089Z,95612.41
2022-10-24T04:07:56.976Z,95625.19
2022-10-24T04:10:58.901Z,95629.81
2022-10-24T04:17:07.593Z,95618.22
2022-10-24T04:20:11.932Z,95622.47
2022-10-24T04:23:14.105Z,95631.75
2022-10-24T04:26:16.847Z,95630.59
2022-10-24T04:29:18.740Z,95636.00
2022-10-24T04:32:20.635Z,95621.28
2022-10-24T04:35:24.354Z,95624.00
2022-10-24T04:38:27.010Z,95618.59
2022-10-24T04:41:31.811Z,95621.28
2022-10-24T04:44:33.679Z,95621.31
2022-10-24T04:47:35.738Z,95623.63
2022-10-24T04:50:40.117Z,95621.69
2022-10-24T04:53:42.124Z,95608.13
2022-10-24T04:56:44.056Z,95601.16
2022-10-24T04:59:46.123Z,95601.94
2022-10-24T05:02:48.045Z,95600.00
2022-10-24T05:05:51.592Z,95599.25
2022-10-24T05:09:04.832Z,95593.03
2022-10-24T05:12:07.046Z,95600.41
2022-10-24T05:15:10.105Z,95592.28
2022-10-24T05:18:12.208Z,95590.34
2022-10-24T05:21:15.845Z,95580.66
2022-10-24T05:24:17.761Z,95589.94
2022-10-24T05:27:19.863Z,95588.00
2022-10-24T05:30:21.911Z,95579.50
2022-10-24T05:33:23.811Z,95583.75
2022-10-24T05:36:27.072Z,95576.41
2022-10-24T05:39:28.952Z,95565.56
2022-10-24T05:42:30.843Z,95560.53
2022-10-24T05:45:32.835Z,95552.78
2022-10-24T05:48:35.754Z,95563.25
2022-10-24T05:51:38.962Z,95565.59
2022-10-24T05:54:55.169Z,95571.78
2022-10-24T05:58:03.203Z,95574.50
2022-10-24T06:01:05.569Z,95575.28
2022-10-24T06:04:10.047Z,95571.03
2022-10-24T06:07:16.264Z,95575.28
2022-10-24T06:10:18.327Z,95579.91
2022-10-24T06:13:20.534Z,95586.09
2022-10-24T06:16:22.432Z,95586.44
2022-10-24T06:19:24.231Z,95581.81
2022-10-24T06:22:27.582Z,95581.06
2022-10-24T06:25:29.567Z,95586.44
2022-10-24T06:28:31.417Z,95589.19
2022-10-24T06:31:33.354Z,95589.94
2022-10-24T06:34:35.323Z,95592.66
2022-10-24T06:37:38.638Z,95598.44
2022-10-24T06:40:40.577Z,95594.59
2022-10-24T06:43:42.726Z,95600.00
2022-10-24T06:46:44.716Z,95611.22
2022-10-24T06:49:46.735Z,95608.88
2022-10-24T06:52:50.243Z,95613.16
2022-10-24T06:55:52.126Z,95615.09
2022-10-24T06:58:54.364Z,95616.25
2022-10-24T07:01:58.291Z,95615.47
2022-10-24T07:05:02.627Z,95618.94
2022-10-24T07:08:06.320Z,95627.88
2022-10-24T07:11:08.332Z,95629.41
2022-10-24T07:14:10.301Z,95628.59
2022-10-24T07:17:12.269Z,95632.09
2022-10-24T07:20:14.829Z,95637.88
2022-10-24T07:23:18.224Z,95635.94
2022-10-24T07:26:20.975Z,95636.31
2022-10-24T07:29:23.136Z,95636.69
2022-10-24T07:32:25.234Z,95631.66
2022-10-24T07:35:27.417Z,95634.38
2022-10-24T07:38:30.724Z,95643.66
2022-10-24T07:41:32.849Z,95651.00
2022-10-24T07:44:34.890Z,95639.00
2022-10-24T07:47:36.798Z,95641.69
2022-10-24T07:50:43.057Z,95637.06
2022-10-24T07:53:46.504Z,95630.84
2022-10-24T07:56:48.433Z,95628.53
2022-10-24T07:59:50.631Z,95621.53
2022-10-24T08:02:52.502Z,95613.81
2022-10-24T08:05:54.379Z,95620.78
2022-10-24T08:08:58.160Z,95618.44
2022-10-24T08:12:00.522Z,95606.41
2022-10-24T08:15:03.933Z,95600.94
2022-10-24T08:18:06.178Z,95603.59
2022-10-24T08:21:10.958Z,95603.22
2022-10-24T08:24:14.432Z,95607.47
2022-10-24T08:27:17.409Z,95598.97
2022-10-24T08:30:19.509Z,95606.31
2022-10-24T08:33:21.424Z,95602.03
2022-10-24T08:36:25.427Z,95598.56
2022-10-24T08:39:29.000Z,95589.66
2022-10-24T08:42:30.977Z,95565.22
2022-10-24T08:45:45.434Z,95553.56
2022-10-24T08:48:54.151Z,95562.41
2022-10-24T08:52:00.101Z,95575.16
2022-10-24T08:55:25.220Z,95569.34
2022-10-24T08:58:37.099Z,95559.66
2022-10-24T09:01:46.936Z,95565.03
2022-10-24T09:04:56.245Z,95559.16
2022-10-24T09:08:05.866Z,95559.13
2022-10-24T09:11:14.987Z,95561.41
2022-10-24T09:14:19.974Z,95564.50
2022-10-24T09:17:24.714Z,95568.75
2022-10-24T09:20:29.297Z,95560.59
2022-10-24T09:23:33.891Z,95559.03
2022-10-24T09:26:37.664Z,95569.13
2022-10-24T09:29:39.600Z,95569.06
2022-10-24T09:32:42.655Z,95573.34
2022-10-24T09:35:45.366Z,95583.81
2022-10-24T09:38:47.787Z,95580.31
2022-10-24T09:41:51.053Z,95566.78
2022-10-24T09:44:57.570Z,95556.31
2022-10-24T09:48:02.269Z,95545.81
2022-10-24T09:51:07.101Z,95547.31
2022-10-24T09:54:28.069Z,95557.38
2022-10-24T09:57:38.679Z,95558.94
2022-10-24T10:00:40.603Z,95553.91
2022-10-24T10:03:43.431Z,95554.34
2022-10-24T10:06:47.434Z,95564.78
2022-10-24T10:09:56.442Z,95570.09
2022-10-24T10:13:07.105Z,95570.78
2022-10-24T10:16:21.633Z,95572.38
2022-10-24T10:19:23.609Z,95562.63
2022-10-24T10:22:27.778Z,95561.78
2022-10-24T10:25:31.512Z,95565.22
2022-10-24T10:28:41.509Z,95558.97
2022-10-24T10:31:45.413Z,95560.97
2022-10-24T10:34:54.525Z,95569.09
2022-10-24T10:38:00.638Z,95569.78
2022-10-24T10:41:10.772Z,95572.84
2022-10-24T10:44:35.919Z,95572.13
2022-10-24T10:47:50.019Z,95572.22
2022-10-24T10:50:58.347Z,95572.22
2022-10-24T10:54:11.334Z,95578.41
2022-10-24T10:57:17.507Z,95565.22
2022-10-24T11:00:25.428Z,95556.38
2022-10-24T11:03:37.405Z,95552.94
2022-10-24T11:06:51.907Z,95544.75
2022-10-24T11:09:58.774Z,95541.22
2022-10-24T11:13:05.638Z,95552.38
2022-10-24T11:16:14.237Z,95541.16
2022-10-24T11:19:25.840Z,95543.50
2022-10-24T11:22:32.378Z,95525.59
2022-10-24T11:25:38.836Z,95530.88
2022-10-24T11:28:49.362Z,95530.78
2022-10-24T11:31:56.736Z,95539.69
2022-10-24T11:35:02.224Z,95544.00
2022-10-24T11:38:13.711Z,95550.50
2022-10-24T11:41:33.103Z,95550.88
2022-10-24T11:44:46.112Z,95540.00
2022-10-24T11:48:01.825Z,95538.47
2022-10-24T11:51:09.984Z,95533.41
2022-10-24T11:54:16.155Z,95531.81
2022-10-24T11:57:21.856Z,95526.03
2022-10-24T12:00:27.838Z,95519.81
2022-10-24T12:03:58.211Z,95534.19
2022-10-24T12:07:28.902Z,95529.50
2022-10-24T12:11:13.072Z,95523.69
2022-10-24T12:14:40.873Z,95514.78
2022-10-24T12:18:01.706Z,95517.19
2022-10-24T12:21:07.410Z,95512.59
2022-10-24T12:24:21.189Z,95506.69
2022-10-24T12:27:31.531Z,95517.50
2022-10-24T12:30:35.603Z,95517.56
2022-10-24T12:33:37.592Z,95526.97
2022-10-24T12:37:02.939Z,95534.34
2022-10-24T12:40:42.369Z,95535.03
2022-10-24T12:43:48.159Z,95537.75
2022-10-24T12:46:54.471Z,95549.38
2022-10-24T12:49:57.240Z,95542.94
2022-10-24T12:53:15.908Z,95547.31
2022-10-24T12:59:28.838Z,95555.41
2022-10-24T13:03:05.462Z,95569.38
2022-10-24T13:06:12.709Z,95572.06
2022-10-24T13:09:30.351Z,95576.22
2022-10-24T13:12:52.450Z,95569.78
2022-10-24T13:16:03.014Z,95586.44
2022-10-24T13:19:12.455Z,95590.06
2022-10-24T13:22:29.231Z,95579.63
2022-10-24T13:25:36.913Z,95588.91
2022-10-24T13:28:40.020Z,95600.25
2022-10-24T13:31:52.788Z,95601.09
2022-10-24T13:34:55.474Z,95601.94
2022-10-24T13:38:02.878Z,95597.72
2022-10-24T13:41:11.166Z,95600.78
2022-10-24T13:44:22.945Z,95608.19
2022-10-24T13:47:32.007Z,95603.88
2022-10-24T13:50:38.868Z,95614.75
2022-10-24T13:53:46.081Z,95620.91
2022-10-24T13:56:49.501Z,95623.28
2022-10-24T13:59:55.449Z,95626.03
2022-10-24T14:02:58.795Z,95634.97
2022-10-24T14:06:02.351Z,95641.22
2022-10-24T14:09:07.501Z,95653.16
2022-10-24T14:12:20.160Z,95652.03
2022-10-24T14:15:24.687Z,95659.75
2022-10-24T14:18:27.374Z,95665.16
2022-10-24T14:21:41.163Z,95658.09
2022-10-24T14:24:44.266Z,95651.91
2022-10-24T14:27:47.938Z,95648.88
2022-10-24T14:30:54.999Z,95655.06
2022-10-24T14:33:58.275Z,95650.03
2022-10-24T14:37:03.087Z,95653.91
2022-10-24T14:40:06.554Z,95655.81
2022-10-24T14:43:14.282Z,95659.31
2022-10-24T14:46:33.332Z,95664.72
2022-10-24T14:49:36.809Z,95667.84
2022-10-24T14:52:38.791Z,95679.88
2022-10-24T14:55:40.648Z,95680.69
2022-10-24T14:58:44.010Z,95669.41
2022-10-24T15:01:54.556Z,95668.22
2022-10-24T15:05:15.390Z,95674.03
2022-10-24T15:08:26.679Z,95680.63
2022-10-24T15:11:29.778Z,95683.34
2022-10-24T15:14:38.265Z,95684.13
2022-10-24T15:17:40.162Z,95675.66
2022-10-24T15:20:41.982Z,95681.47
2022-10-24T15:23:47.464Z,95684.53
2022-10-24T15:53:23.061Z,95660.75
2022-10-24T15:56:24.996Z,95649.09
2022-10-24T15:59:26.994Z,95659.91
2022-10-24T16:02:29.141Z,95659.13
2022-10-24T16:05:36.797Z,95665.66
2022-10-24T16:08:40.050Z,95654.00
2022-10-24T16:11:42.187Z,95663.00
2022-10-24T16:14:44.419Z,95662.69
2022-10-24T16:17:47.066Z,95673.56
2022-10-24T16:20:49.193Z,95674.72
2022-10-24T16:23:52.657Z,95679.38
2022-10-24T16:26:54.689Z,95675.19
2022-10-24T16:29:57.098Z,95678.38
2022-10-24T16:32:59.363Z,95684.25
2022-10-24T16:36:01.952Z,95673.78
2022-10-24T16:39:08.941Z,95669.16
2022-10-24T16:42:11.289Z,95678.44
2022-10-24T16:45:13.868Z,95664.88
2022-10-24T16:48:16.611Z,95647.09
2022-10-24T16:51:22.198Z,95642.03
2022-10-24T16:54:25.836Z,95629.25
2022-10-24T16:57:28.480Z,95641.66
2022-10-24T17:00:33.887Z,95647.91
2022-10-24T17:03:36.580Z,95664.56
2022-10-24T17:06:39.153Z,95678.81
2022-10-24T17:09:43.359Z,95677.66
2022-10-24T17:12:46.782Z,95653.94
2022-10-24T17:15:49.221Z,95636.91
2022-10-24T17:19:05.679Z,95644.69
2022-10-24T17:22:18.435Z,95656.31
2022-10-24T17:25:25.704Z,95675.66
2022-10-24T17:28:33.083Z,95676.44
2022-10-24T17:31:36.215Z,95659.38
2022-10-24T17:34:39.272Z,95665.16
2022-10-24T17:37:54.877Z,95655.50
2022-10-24T17:41:04.025Z,95676.03
2022-10-24T17:44:07.876Z,95669.88
2022-10-24T17:47:11.383Z,95669.53
2022-10-24T17:50:15.188Z,95671.03
2022-10-24T17:53:19.744Z,95676.47
2022-10-24T17:56:25.683Z,95679.97
2022-10-24T17:59:28.784Z,95690.03
2022-10-24T18:02:31.693Z,95685.78
2022-10-24T18:05:34.162Z,95674.59
2022-10-24T18:08:37.304Z,95671.06
2022-10-24T18:11:43.039Z,95674.53
2022-10-24T18:14:45.991Z,95677.25
2022-10-24T18:17:49.411Z,95671.84
2022-10-24T18:20:52.672Z,95674.16
2022-10-24T18:23:55.894Z,95671.81
2022-10-24T18:27:00.336Z,95678.78
2022-10-24T18:30:03.562Z,95671.03
2022-10-24T18:33:06.036Z,95669.50
2022-10-24T18:36:10.804Z,95666.00
2022-10-24T18:39:13.554Z,95674.53
2022-10-24T18:42:26.777Z,95661.38
2022-10-24T18:45:30.282Z,95673.78
2022-10-24T18:48:36.311Z,95685.03
2022-10-24T18:51:44.698Z,95679.66
2022-10-24T18:55:05.709Z,95675.78
2022-10-24T18:58:13.475Z,95675.75
2022-10-24T19:01:27.250Z,95676.91
2022-10-24T19:04:30.184Z,95668.00
2022-10-24T19:07:33.211Z,95661.41
2022-10-24T19:10:35.993Z,95652.88
2022-10-24T19:13:42.502Z,95649.38
2022-10-24T19:16:46.331Z,95631.56
2022-10-24T19:19:55.706Z,95626.13
2022-10-24T19:22:58.164Z,95619.13
2022-10-24T19:26:00.805Z,95627.28
2022-10-24T19:29:05.940Z,95628.47
2022-10-24T19:32:08.833Z,95638.50
2022-10-24T19:35:11.544Z,95641.22
2022-10-24T19:38:14.692Z,95652.47
2022-10-24T19:41:17.143Z,95645.09
2022-10-24T19:44:24.649Z,95637.75
2022-10-24T19:47:27.825Z,95636.22
2022-10-24T19:50:31.205Z,95633.16
2022-10-24T19:53:34.624Z,95635.84
2022-10-24T19:56:37.334Z,95630.06
2022-10-24T19:59:41.735Z,95616.91
2022-10-24T20:02:44.917Z,95619.63
2022-10-24T20:05:50.513Z,95620.41
2022-10-24T20:08:54.166Z,95591.34
2022-10-24T20:11:56.425Z,95573.56
2022-10-24T20:15:01.560Z,95592.97
2022-10-24T20:18:04.737Z,95586.03
2022-10-24T20:21:09.445Z,95575.97
2022-10-24T20:24:12.030Z,95573.66
2022-10-24T20:27:14.497Z,95575.97
2022-10-24T20:30:19.662Z,95579.44
2022-10-24T20:33:22.092Z,95591.53
2022-10-24T20:36:24.330Z,95588.84
2022-10-24T20:39:26.771Z,95581.47
2022-10-24T20:42:28.910Z,95566.00
2022-10-24T20:45:32.256Z,95569.88
2022-10-24T20:48:34.520Z,95571.06
2022-10-24T20:51:37.332Z,95568.75
2022-10-24T20:54:39.278Z,95569.50
2022-10-24T20:57:41.722Z,95578.00
2022-10-24T21:00:45.315Z,95584.19
2022-10-24T21:03:47.887Z,95586.50
2022-10-24T21:06:50.140Z,95598.13
2022-10-24T21:09:52.639Z,95595.38
2022-10-24T21:12:56.695Z,95594.19
2022-10-24T21:16:00.124Z,95591.88
2022-10-24T21:19:02.489Z,95588.44
2022-10-24T21:22:04.387Z,95591.81
2022-10-24T21:25:06.965Z,95589.44
2022-10-24T21:28:08.996Z,95583.72
2022-10-24T21:31:14.220Z,95596.50
2022-10-24T21:34:16.397Z,95587.63
2022-10-24T21:37:18.277Z,95594.59
2022-10-24T21:40:20.176Z,95593.84
2022-10-24T21:43:22.151Z,95601.53
2022-10-24T21:46:26.859Z,95602.31
2022-10-24T21:49:28.713Z,95601.47
2022-10-24T21:52:30.602Z,95608.44
2022-10-24T21:55:32.459Z,95609.22
2022-10-24T21:58:34.405Z,95605.56
2022-10-24T22:01:38.104Z,95609.13
2022-10-24T22:04:40.090Z,95617.69
2022-10-24T22:07:43.889Z,95621.53
2022-10-24T22:10:55.576Z,95630.41
2022-10-24T22:13:57.398Z,95631.22
2022-10-24T22:17:00.641Z,95631.56
2022-10-24T22:20:02.488Z,95634.81
2022-10-24T22:23:04.337Z,95636.72
2022-10-24T22:26:06.206Z,95639.19
2022-10-24T22:29:10.162Z,95640.03
2022-10-24T22:32:14.551Z,95644.72
2022-10-24T22:35:17.309Z,95647.03
2022-10-24T22:38:19.701Z,95641.66
2022-10-24T22:41:22.683Z,95646.72
2022-10-24T22:44:25.105Z,95645.56
2022-10-24T22:47:42.036Z,95648.22
2022-10-24T22:50:50.003Z,95661.78
2022-10-24T22:53:52.371Z,95651.72
2022-10-24T22:56:54.716Z,95657.53
2022-10-24T22:59:56.980Z,95663.28
2022-10-24T23:03:06.765Z,95669.88
2022-10-24T23:06:14.542Z,95674.16
2022-10-24T23:09:16.410Z,95685.38
2022-10-24T23:12:20.623Z,95688.09
2022-10-24T23:15:23.146Z,95690.44
2022-10-24T23:18:27.130Z,95690.81
2022-10-24T23:21:36.393Z,95689.66
2022-10-24T23:24:38.254Z,95687.72
2022-10-24T23:27:42.105Z,95686.94
2022-10-24T23:30:44.415Z,95690.81
2022-10-24T23:33:48.296Z,95693.91
2022-10-24T23:36:51.123Z,95691.56
2022-10-24T23:39:53.592Z,95684.66
2022-10-24T23:42:56.258Z,95688.84
2022-10-24T23:46:01.831Z,95680.31
2022-10-24T23:49:19.024Z,95686.13
2022-10-24T23:52:28.043Z,95683.03
2022-10-24T23:55:30.477Z,95688.44
2022-10-24T23:58:32.338Z,95684.97
